sensor_id;sensor_type;location;lat;lon;timestamp;temperature;humidity
1337;DHT22;662;48.814;9.318;2023-08-17T00:01:23;23.60;70.90
1337;DHT22;662;48.814;9.318;2023-08-17T00:03:49;23.60;71.00
1337;DHT22;662;48.814;9.318;2023-08-17T00:06:14;23.60;71.00
1337;DHT22;662;48.814;9.318;2023-08-17T00:08:41;23.60;71.00
1337;DHT22;662;48.814;9.318;2023-08-17T00:11:06;23.60;71.20
1337;DHT22;662;48.814;9.318;2023-08-17T00:13:32;23.60;71.20
1337;DHT22;662;48.814;9.318;2023-08-17T00:15:58;23.60;71.20
1337;DHT22;662;48.814;9.318;2023-08-17T00:18:23;23.60;71.20
1337;DHT22;662;48.814;9.318;2023-08-17T00:20:49;23.60;71.20
1337;DHT22;662;48.814;9.318;2023-08-17T00:23:14;23.60;71.20
1337;DHT22;662;48.814;9.318;2023-08-17T00:25:40;23.60;71.30
1337;DHT22;662;48.814;9.318;2023-08-17T00:28:05;23.60;71.30
1337;DHT22;662;48.814;9.318;2023-08-17T00:30:31;23.60;71.30
1337;DHT22;662;48.814;9.318;2023-08-17T00:33:01;23.60;71.40
1337;DHT22;662;48.814;9.318;2023-08-17T00:35:27;23.60;71.40
1337;DHT22;662;48.814;9.318;2023-08-17T00:37:53;23.60;71.40
1337;DHT22;662;48.814;9.318;2023-08-17T00:40:18;23.50;71.30
1337;DHT22;662;48.814;9.318;2023-08-17T00:42:44;23.50;71.40
1337;DHT22;662;48.814;9.318;2023-08-17T00:45:10;23.50;71.50
1337;DHT22;662;48.814;9.318;2023-08-17T00:47:36;23.50;71.50
1337;DHT22;662;48.814;9.318;2023-08-17T00:50:02;23.50;71.50
1337;DHT22;662;48.814;9.318;2023-08-17T00:52:28;23.40;71.40
1337;DHT22;662;48.814;9.318;2023-08-17T00:54:56;23.50;71.60
1337;DHT22;662;48.814;9.318;2023-08-17T00:57:23;23.50;71.60
1337;DHT22;662;48.814;9.318;2023-08-17T00:59:48;23.50;71.50
1337;DHT22;662;48.814;9.318;2023-08-17T01:02:15;23.50;71.60
1337;DHT22;662;48.814;9.318;2023-08-17T01:04:41;23.50;71.50
1337;DHT22;662;48.814;9.318;2023-08-17T01:07:06;23.40;71.20
1337;DHT22;662;48.814;9.318;2023-08-17T01:09:32;23.40;71.20
1337;DHT22;662;48.814;9.318;2023-08-17T01:17:36;23.30;71.30
1337;DHT22;662;48.814;9.318;2023-08-17T01:20:03;23.30;71.30
1337;DHT22;662;48.814;9.318;2023-08-17T01:22:32;23.30;71.40
1337;DHT22;662;48.814;9.318;2023-08-17T01:25:01;23.30;71.60
1337;DHT22;662;48.814;9.318;2023-08-17T01:27:39;23.20;71.50
1337;DHT22;662;48.814;9.318;2023-08-17T01:30:06;23.20;71.60
1337;DHT22;662;48.814;9.318;2023-08-17T01:35:36;23.20;71.70
1337;DHT22;662;48.814;9.318;2023-08-17T01:38:06;23.20;71.80
1337;DHT22;662;48.814;9.318;2023-08-17T01:40:33;23.20;71.70
1337;DHT22;662;48.814;9.318;2023-08-17T01:43:00;23.20;71.80
1337;DHT22;662;48.814;9.318;2023-08-17T01:45:26;23.20;71.80
1337;DHT22;662;48.814;9.318;2023-08-17T01:47:52;23.20;71.80
1337;DHT22;662;48.814;9.318;2023-08-17T01:50:18;23.20;71.80
1337;DHT22;662;48.814;9.318;2023-08-17T01:52:43;23.20;71.80
1337;DHT22;662;48.814;9.318;2023-08-17T01:55:09;23.20;71.80
1337;DHT22;662;48.814;9.318;2023-08-17T01:57:35;23.20;71.80
1337;DHT22;662;48.814;9.318;2023-08-17T02:00:03;23.20;71.80
1337;DHT22;662;48.814;9.318;2023-08-17T02:02:30;23.30;72.00
1337;DHT22;662;48.814;9.318;2023-08-17T02:04:55;23.30;71.90
1337;DHT22;662;48.814;9.318;2023-08-17T02:07:21;23.30;72.00
1337;DHT22;662;48.814;9.318;2023-08-17T02:09:47;23.30;72.10
1337;DHT22;662;48.814;9.318;2023-08-17T02:12:12;23.30;72.00
1337;DHT22;662;48.814;9.318;2023-08-17T02:14:38;23.30;72.00
1337;DHT22;662;48.814;9.318;2023-08-17T02:17:03;23.30;72.10
1337;DHT22;662;48.814;9.318;2023-08-17T02:19:31;23.20;72.10
1337;DHT22;662;48.814;9.318;2023-08-17T02:21:58;23.20;72.10
1337;DHT22;662;48.814;9.318;2023-08-17T02:24:24;23.20;72.30
1337;DHT22;662;48.814;9.318;2023-08-17T02:26:50;23.20;72.40
1337;DHT22;662;48.814;9.318;2023-08-17T02:29:16;23.20;72.40
1337;DHT22;662;48.814;9.318;2023-08-17T02:31:42;23.20;72.50
1337;DHT22;662;48.814;9.318;2023-08-17T02:34:07;23.20;72.40
1337;DHT22;662;48.814;9.318;2023-08-17T02:36:33;23.20;72.50
1337;DHT22;662;48.814;9.318;2023-08-17T02:38:59;23.20;72.50
1337;DHT22;662;48.814;9.318;2023-08-17T02:41:24;23.20;72.50
1337;DHT22;662;48.814;9.318;2023-08-17T02:43:50;23.20;72.60
1337;DHT22;662;48.814;9.318;2023-08-17T02:46:16;23.20;72.70
1337;DHT22;662;48.814;9.318;2023-08-17T02:48:41;23.20;72.80
1337;DHT22;662;48.814;9.318;2023-08-17T02:51:07;23.20;72.70
1337;DHT22;662;48.814;9.318;2023-08-17T02:53:33;23.20;72.70
1337;DHT22;662;48.814;9.318;2023-08-17T02:55:58;23.20;72.70
1337;DHT22;662;48.814;9.318;2023-08-17T02:58:24;23.10;72.50
1337;DHT22;662;48.814;9.318;2023-08-17T03:00:52;23.10;72.50
1337;DHT22;662;48.814;9.318;2023-08-17T03:03:19;23.10;72.60
1337;DHT22;662;48.814;9.318;2023-08-17T03:05:44;23.10;72.70
1337;DHT22;662;48.814;9.318;2023-08-17T03:08:10;23.00;72.60
1337;DHT22;662;48.814;9.318;2023-08-17T03:10:37;23.10;72.70
1337;DHT22;662;48.814;9.318;2023-08-17T03:13:03;23.00;72.60
1337;DHT22;662;48.814;9.318;2023-08-17T03:15:29;23.00;72.60
1337;DHT22;662;48.814;9.318;2023-08-17T03:17:55;23.00;72.60
1337;DHT22;662;48.814;9.318;2023-08-17T03:20:20;23.00;72.60
1337;DHT22;662;48.814;9.318;2023-08-17T03:22:46;23.00;72.60
1337;DHT22;662;48.814;9.318;2023-08-17T03:25:11;23.00;72.60
1337;DHT22;662;48.814;9.318;2023-08-17T03:27:37;23.00;72.70
1337;DHT22;662;48.814;9.318;2023-08-17T03:30:04;23.00;72.60
1337;DHT22;662;48.814;9.318;2023-08-17T03:32:30;22.90;72.50
1337;DHT22;662;48.814;9.318;2023-08-17T03:34:55;22.90;72.30
1337;DHT22;662;48.814;9.318;2023-08-17T03:37:21;22.90;72.30
1337;DHT22;662;48.814;9.318;2023-08-17T03:39:47;22.90;72.40
1337;DHT22;662;48.814;9.318;2023-08-17T03:42:12;22.90;72.40
1337;DHT22;662;48.814;9.318;2023-08-17T03:44:38;22.90;72.50
1337;DHT22;662;48.814;9.318;2023-08-17T03:47:04;22.90;72.50
1337;DHT22;662;48.814;9.318;2023-08-17T03:49:29;22.90;72.50
1337;DHT22;662;48.814;9.318;2023-08-17T03:51:55;22.90;72.50
1337;DHT22;662;48.814;9.318;2023-08-17T03:54:20;22.80;72.40
1337;DHT22;662;48.814;9.318;2023-08-17T03:56:47;22.80;72.50
1337;DHT22;662;48.814;9.318;2023-08-17T03:59:14;22.80;72.70
1337;DHT22;662;48.814;9.318;2023-08-17T04:01:39;22.80;72.70
1337;DHT22;662;48.814;9.318;2023-08-17T04:04:05;22.80;72.90
1337;DHT22;662;48.814;9.318;2023-08-17T04:06:31;22.80;72.90
1337;DHT22;662;48.814;9.318;2023-08-17T04:08:56;22.80;72.90
1337;DHT22;662;48.814;9.318;2023-08-17T04:11:22;22.80;72.90
1337;DHT22;662;48.814;9.318;2023-08-17T04:13:48;22.80;72.90
1337;DHT22;662;48.814;9.318;2023-08-17T04:16:13;22.80;72.90
1337;DHT22;662;48.814;9.318;2023-08-17T04:18:39;22.80;73.00
1337;DHT22;662;48.814;9.318;2023-08-17T04:21:04;22.80;73.00
1337;DHT22;662;48.814;9.318;2023-08-17T04:23:30;22.80;73.00
1337;DHT22;662;48.814;9.318;2023-08-17T04:25:56;22.80;73.10
1337;DHT22;662;48.814;9.318;2023-08-17T04:28:21;22.70;73.10
1337;DHT22;662;48.814;9.318;2023-08-17T04:30:47;22.80;73.20
1337;DHT22;662;48.814;9.318;2023-08-17T04:33:12;22.80;73.30
1337;DHT22;662;48.814;9.318;2023-08-17T04:35:38;22.80;73.50
1337;DHT22;662;48.814;9.318;2023-08-17T04:38:04;22.80;73.50
1337;DHT22;662;48.814;9.318;2023-08-17T04:40:30;22.80;73.40
1337;DHT22;662;48.814;9.318;2023-08-17T04:42:56;22.80;73.50
1337;DHT22;662;48.814;9.318;2023-08-17T04:45:21;22.80;73.50
1337;DHT22;662;48.814;9.318;2023-08-17T04:47:48;22.80;73.50
1337;DHT22;662;48.814;9.318;2023-08-17T04:50:14;22.80;73.50
1337;DHT22;662;48.814;9.318;2023-08-17T04:52:45;22.80;73.50
1337;DHT22;662;48.814;9.318;2023-08-17T04:55:14;22.80;73.50
1337;DHT22;662;48.814;9.318;2023-08-17T04:57:40;22.80;73.50
1337;DHT22;662;48.814;9.318;2023-08-17T05:00:09;22.80;73.50
1337;DHT22;662;48.814;9.318;2023-08-17T05:02:36;22.80;73.60
1337;DHT22;662;48.814;9.318;2023-08-17T05:05:05;22.80;73.70
1337;DHT22;662;48.814;9.318;2023-08-17T05:07:32;22.90;73.90
1337;DHT22;662;48.814;9.318;2023-08-17T05:09:58;22.90;73.90
1337;DHT22;662;48.814;9.318;2023-08-17T05:12:24;22.90;74.70
1337;DHT22;662;48.814;9.318;2023-08-17T05:14:49;22.90;73.90
1337;DHT22;662;48.814;9.318;2023-08-17T05:17:15;22.90;74.00
1337;DHT22;662;48.814;9.318;2023-08-17T05:19:41;22.90;74.10
1337;DHT22;662;48.814;9.318;2023-08-17T05:22:11;22.90;74.00
1337;DHT22;662;48.814;9.318;2023-08-17T05:24:37;23.00;74.10
1337;DHT22;662;48.814;9.318;2023-08-17T05:27:03;23.00;74.10
1337;DHT22;662;48.814;9.318;2023-08-17T05:29:29;23.00;74.00
1337;DHT22;662;48.814;9.318;2023-08-17T05:31:54;23.10;74.00
1337;DHT22;662;48.814;9.318;2023-08-17T05:34:20;23.10;74.00
1337;DHT22;662;48.814;9.318;2023-08-17T05:36:46;23.10;73.80
1337;DHT22;662;48.814;9.318;2023-08-17T05:39:11;23.10;73.80
1337;DHT22;662;48.814;9.318;2023-08-17T05:41:37;23.20;73.80
1337;DHT22;662;48.814;9.318;2023-08-17T05:44:03;23.20;73.70
1337;DHT22;662;48.814;9.318;2023-08-17T05:46:28;23.20;73.70
1337;DHT22;662;48.814;9.318;2023-08-17T05:48:54;23.30;73.70
1337;DHT22;662;48.814;9.318;2023-08-17T05:51:20;23.30;73.60
1337;DHT22;662;48.814;9.318;2023-08-17T05:53:45;23.40;73.50
1337;DHT22;662;48.814;9.318;2023-08-17T05:56:11;23.40;73.40
1337;DHT22;662;48.814;9.318;2023-08-17T05:58:36;23.40;73.40
1337;DHT22;662;48.814;9.318;2023-08-17T06:01:06;23.50;73.60
1337;DHT22;662;48.814;9.318;2023-08-17T06:03:33;23.40;73.50
1337;DHT22;662;48.814;9.318;2023-08-17T06:05:59;23.40;73.50
1337;DHT22;662;48.814;9.318;2023-08-17T06:08:25;23.50;73.60
1337;DHT22;662;48.814;9.318;2023-08-17T06:10:50;23.50;73.60
1337;DHT22;662;48.814;9.318;2023-08-17T06:13:20;23.50;73.60
1337;DHT22;662;48.814;9.318;2023-08-17T06:15:51;23.50;73.60
1337;DHT22;662;48.814;9.318;2023-08-17T06:18:20;23.60;73.70
1337;DHT22;662;48.814;9.318;2023-08-17T06:20:46;23.60;73.60
1337;DHT22;662;48.814;9.318;2023-08-17T06:23:13;23.70;73.70
1337;DHT22;662;48.814;9.318;2023-08-17T06:25:39;23.70;73.50
1337;DHT22;662;48.814;9.318;2023-08-17T06:28:05;23.80;73.50
1337;DHT22;662;48.814;9.318;2023-08-17T06:30:31;23.90;73.40
1337;DHT22;662;48.814;9.318;2023-08-17T06:32:57;23.90;73.30
1337;DHT22;662;48.814;9.318;2023-08-17T06:35:22;23.90;73.20
1337;DHT22;662;48.814;9.318;2023-08-17T06:37:48;23.90;73.80
1337;DHT22;662;48.814;9.318;2023-08-17T06:40:14;24.00;73.10
1337;DHT22;662;48.814;9.318;2023-08-17T06:42:39;24.00;73.00
1337;DHT22;662;48.814;9.318;2023-08-17T06:45:05;24.00;73.10
1337;DHT22;662;48.814;9.318;2023-08-17T06:47:31;24.00;73.00
1337;DHT22;662;48.814;9.318;2023-08-17T06:49:57;24.00;73.00
1337;DHT22;662;48.814;9.318;2023-08-17T06:52:23;24.00;72.90
1337;DHT22;662;48.814;9.318;2023-08-17T06:54:49;24.00;72.70
1337;DHT22;662;48.814;9.318;2023-08-17T06:57:15;24.00;72.60
1337;DHT22;662;48.814;9.318;2023-08-17T06:59:40;24.10;72.60
1337;DHT22;662;48.814;9.318;2023-08-17T07:02:06;24.10;72.60
1337;DHT22;662;48.814;9.318;2023-08-17T07:04:32;24.20;72.60
1337;DHT22;662;48.814;9.318;2023-08-17T07:06:58;24.20;72.50
1337;DHT22;662;48.814;9.318;2023-08-17T07:09:23;24.10;72.30
1337;DHT22;662;48.814;9.318;2023-08-17T07:11:50;24.10;72.10
1337;DHT22;662;48.814;9.318;2023-08-17T07:14:15;24.10;72.10
1337;DHT22;662;48.814;9.318;2023-08-17T07:16:41;24.10;72.20
1337;DHT22;662;48.814;9.318;2023-08-17T07:19:06;24.20;72.40
1337;DHT22;662;48.814;9.318;2023-08-17T07:21:32;24.20;73.10
1337;DHT22;662;48.814;9.318;2023-08-17T07:23:57;24.30;72.10
1337;DHT22;662;48.814;9.318;2023-08-17T07:26:23;24.30;71.80
1337;DHT22;662;48.814;9.318;2023-08-17T07:28:49;24.40;71.80
1337;DHT22;662;48.814;9.318;2023-08-17T07:31:15;24.50;71.80
1337;DHT22;662;48.814;9.318;2023-08-17T07:33:41;24.60;71.60
1337;DHT22;662;48.814;9.318;2023-08-17T07:36:06;24.70;71.50
1337;DHT22;662;48.814;9.318;2023-08-17T07:38:32;24.70;71.20
1337;DHT22;662;48.814;9.318;2023-08-17T07:40:58;24.80;71.00
1337;DHT22;662;48.814;9.318;2023-08-17T07:43:24;24.90;70.80
1337;DHT22;662;48.814;9.318;2023-08-17T07:45:57;24.90;70.40
1337;DHT22;662;48.814;9.318;2023-08-17T07:48:23;24.90;70.20
1337;DHT22;662;48.814;9.318;2023-08-17T07:50:52;25.00;70.10
1337;DHT22;662;48.814;9.318;2023-08-17T07:53:19;25.00;69.20
1337;DHT22;662;48.814;9.318;2023-08-17T07:55:45;25.10;69.00
1337;DHT22;662;48.814;9.318;2023-08-17T07:58:11;25.20;68.80
1337;DHT22;662;48.814;9.318;2023-08-17T08:00:37;25.30;68.50
1337;DHT22;662;48.814;9.318;2023-08-17T08:03:03;25.30;68.20
1337;DHT22;662;48.814;9.318;2023-08-17T08:05:28;25.30;68.10
1337;DHT22;662;48.814;9.318;2023-08-17T08:07:54;25.30;68.00
1337;DHT22;662;48.814;9.318;2023-08-17T08:10:20;25.40;68.20
1337;DHT22;662;48.814;9.318;2023-08-17T08:12:45;25.40;68.30
1337;DHT22;662;48.814;9.318;2023-08-17T08:15:11;25.50;68.00
1337;DHT22;662;48.814;9.318;2023-08-17T08:17:36;25.70;67.70
1337;DHT22;662;48.814;9.318;2023-08-17T08:20:03;25.70;67.50
1337;DHT22;662;48.814;9.318;2023-08-17T08:22:29;25.80;67.50
1337;DHT22;662;48.814;9.318;2023-08-17T08:24:55;25.90;67.10
1337;DHT22;662;48.814;9.318;2023-08-17T08:27:21;26.00;66.70
1337;DHT22;662;48.814;9.318;2023-08-17T08:29:46;26.10;66.40
1337;DHT22;662;48.814;9.318;2023-08-17T08:32:12;26.10;66.00
1337;DHT22;662;48.814;9.318;2023-08-17T08:34:38;26.20;65.40
1337;DHT22;662;48.814;9.318;2023-08-17T08:37:04;26.10;64.40
1337;DHT22;662;48.814;9.318;2023-08-17T08:39:29;26.00;64.20
1337;DHT22;662;48.814;9.318;2023-08-17T08:41:55;26.00;64.50
1337;DHT22;662;48.814;9.318;2023-08-17T08:44:21;26.00;64.70
1337;DHT22;662;48.814;9.318;2023-08-17T08:46:48;26.00;64.60
1337;DHT22;662;48.814;9.318;2023-08-17T08:49:19;26.00;65.00
1337;DHT22;662;48.814;9.318;2023-08-17T08:51:48;26.10;65.30
1337;DHT22;662;48.814;9.318;2023-08-17T08:54:20;26.20;65.40
1337;DHT22;662;48.814;9.318;2023-08-17T08:56:46;26.20;65.30
1337;DHT22;662;48.814;9.318;2023-08-17T08:59:16;26.30;65.50
1337;DHT22;662;48.814;9.318;2023-08-17T09:01:42;26.40;65.40
1337;DHT22;662;48.814;9.318;2023-08-17T09:04:08;26.50;65.30
1337;DHT22;662;48.814;9.318;2023-08-17T09:06:34;26.60;65.00
1337;DHT22;662;48.814;9.318;2023-08-17T09:09:01;26.70;64.50
1337;DHT22;662;48.814;9.318;2023-08-17T09:11:28;26.70;64.60
1337;DHT22;662;48.814;9.318;2023-08-17T09:13:53;26.90;64.80
1337;DHT22;662;48.814;9.318;2023-08-17T09:16:20;27.00;64.80
1337;DHT22;662;48.814;9.318;2023-08-17T09:18:45;27.40;64.70
1337;DHT22;662;48.814;9.318;2023-08-17T09:21:24;28.10;62.90
1337;DHT22;662;48.814;9.318;2023-08-17T09:23:53;29.60;59.50
1337;DHT22;662;48.814;9.318;2023-08-17T09:26:20;31.00;56.20
1337;DHT22;662;48.814;9.318;2023-08-17T09:28:52;32.30;53.40
1337;DHT22;662;48.814;9.318;2023-08-17T09:31:23;33.60;50.90
1337;DHT22;662;48.814;9.318;2023-08-17T09:33:52;34.70;48.20
1337;DHT22;662;48.814;9.318;2023-08-17T09:36:22;35.70;45.80
1337;DHT22;662;48.814;9.318;2023-08-17T09:38:51;36.50;43.20
1337;DHT22;662;48.814;9.318;2023-08-17T09:41:19;37.30;42.20
1337;DHT22;662;48.814;9.318;2023-08-17T09:43:46;37.90;40.60
1337;DHT22;662;48.814;9.318;2023-08-17T09:46:12;38.40;39.10
1337;DHT22;662;48.814;9.318;2023-08-17T09:48:38;38.70;39.00
1337;DHT22;662;48.814;9.318;2023-08-17T09:51:03;39.10;38.30
1337;DHT22;662;48.814;9.318;2023-08-17T09:53:35;39.40;37.30
1337;DHT22;662;48.814;9.318;2023-08-17T09:56:05;39.70;36.40
1337;DHT22;662;48.814;9.318;2023-08-17T09:58:33;39.90;36.40
1337;DHT22;662;48.814;9.318;2023-08-17T10:00:58;40.10;36.50
1337;DHT22;662;48.814;9.318;2023-08-17T10:03:29;40.40;35.60
1337;DHT22;662;48.814;9.318;2023-08-17T10:05:59;40.50;34.80
1337;DHT22;662;48.814;9.318;2023-08-17T10:08:28;40.40;34.70
1337;DHT22;662;48.814;9.318;2023-08-17T10:10:56;40.30;35.10
1337;DHT22;662;48.814;9.318;2023-08-17T10:13:33;40.20;35.00
1337;DHT22;662;48.814;9.318;2023-08-17T10:16:23;40.00;34.70
1337;DHT22;662;48.814;9.318;2023-08-17T10:19:05;39.40;35.10
1337;DHT22;662;48.814;9.318;2023-08-17T10:21:39;39.10;35.90
1337;DHT22;662;48.814;9.318;2023-08-17T10:24:07;38.90;35.70
1337;DHT22;662;48.814;9.318;2023-08-17T10:26:33;38.90;36.00
1337;DHT22;662;48.814;9.318;2023-08-17T10:28:59;38.70;36.10
1337;DHT22;662;48.814;9.318;2023-08-17T10:31:28;38.60;36.50
1337;DHT22;662;48.814;9.318;2023-08-17T10:33:55;38.50;35.80
1337;DHT22;662;48.814;9.318;2023-08-17T10:36:22;38.40;36.00
1337;DHT22;662;48.814;9.318;2023-08-17T10:39:17;38.40;36.10
1337;DHT22;662;48.814;9.318;2023-08-17T10:41:50;38.60;36.30
1337;DHT22;662;48.814;9.318;2023-08-17T10:44:18;38.60;35.70
1337;DHT22;662;48.814;9.318;2023-08-17T10:49:44;38.40;35.40
1337;DHT22;662;48.814;9.318;2023-08-17T10:52:09;38.10;35.80
1337;DHT22;662;48.814;9.318;2023-08-17T10:54:42;38.00;37.00
1337;DHT22;662;48.814;9.318;2023-08-17T10:57:36;37.60;37.30
1337;DHT22;662;48.814;9.318;2023-08-17T11:02:37;36.50;39.00
1337;DHT22;662;48.814;9.318;2023-08-17T11:05:03;36.30;39.90
1337;DHT22;662;48.814;9.318;2023-08-17T11:07:40;36.50;40.50
1337;DHT22;662;48.814;9.318;2023-08-17T11:12:46;37.40;40.40
1337;DHT22;662;48.814;9.318;2023-08-17T11:15:12;37.90;39.30
1337;DHT22;662;48.814;9.318;2023-08-17T11:17:37;38.30;39.00
1337;DHT22;662;48.814;9.318;2023-08-17T11:20:04;38.70;38.00
1337;DHT22;662;48.814;9.318;2023-08-17T11:22:30;39.00;37.00
1337;DHT22;662;48.814;9.318;2023-08-17T11:24:55;39.30;37.10
1337;DHT22;662;48.814;9.318;2023-08-17T11:27:21;39.50;36.20
1337;DHT22;662;48.814;9.318;2023-08-17T11:29:47;39.70;35.50
1337;DHT22;662;48.814;9.318;2023-08-17T11:32:16;39.80;35.70
1337;DHT22;662;48.814;9.318;2023-08-17T11:34:42;40.00;35.90
1337;DHT22;662;48.814;9.318;2023-08-17T11:37:08;40.30;35.30
1337;DHT22;662;48.814;9.318;2023-08-17T11:39:36;40.50;34.40
1337;DHT22;662;48.814;9.318;2023-08-17T11:42:01;40.50;34.70
1337;DHT22;662;48.814;9.318;2023-08-17T11:44:27;40.40;33.40
1337;DHT22;662;48.814;9.318;2023-08-17T11:46:53;40.20;34.30
1337;DHT22;662;48.814;9.318;2023-08-17T11:49:19;40.20;34.40
1337;DHT22;662;48.814;9.318;2023-08-17T11:51:44;40.40;34.20
1337;DHT22;662;48.814;9.318;2023-08-17T11:54:10;40.30;33.10
1337;DHT22;662;48.814;9.318;2023-08-17T11:56:37;40.50;34.20
1337;DHT22;662;48.814;9.318;2023-08-17T11:59:09;40.50;34.20
1337;DHT22;662;48.814;9.318;2023-08-17T12:01:39;40.40;34.30
1337;DHT22;662;48.814;9.318;2023-08-17T12:04:06;40.20;34.50
1337;DHT22;662;48.814;9.318;2023-08-17T12:06:32;40.10;35.00
1337;DHT22;662;48.814;9.318;2023-08-17T12:08:57;39.90;35.00
1337;DHT22;662;48.814;9.318;2023-08-17T12:11:24;39.40;35.10
1337;DHT22;662;48.814;9.318;2023-08-17T12:13:53;38.80;35.90
1337;DHT22;662;48.814;9.318;2023-08-17T12:16:20;38.20;36.90
1337;DHT22;662;48.814;9.318;2023-08-17T12:18:52;37.60;37.80
1337;DHT22;662;48.814;9.318;2023-08-17T12:21:21;37.10;38.70
1337;DHT22;662;48.814;9.318;2023-08-17T12:23:47;36.70;39.30
1337;DHT22;662;48.814;9.318;2023-08-17T12:26:20;36.50;39.70
1337;DHT22;662;48.814;9.318;2023-08-17T12:28:46;36.10;40.30
1337;DHT22;662;48.814;9.318;2023-08-17T12:31:12;35.80;41.20
1337;DHT22;662;48.814;9.318;2023-08-17T12:33:37;35.40;41.90
1337;DHT22;662;48.814;9.318;2023-08-17T12:36:03;35.00;42.50
1337;DHT22;662;48.814;9.318;2023-08-17T12:38:29;34.60;43.10
1337;DHT22;662;48.814;9.318;2023-08-17T12:40:55;34.20;43.80
1337;DHT22;662;48.814;9.318;2023-08-17T12:43:20;33.90;44.60
1337;DHT22;662;48.814;9.318;2023-08-17T12:45:46;33.50;45.40
1337;DHT22;662;48.814;9.318;2023-08-17T12:48:12;33.30;46.10
1337;DHT22;662;48.814;9.318;2023-08-17T12:50:38;33.00;46.80
1337;DHT22;662;48.814;9.318;2023-08-17T12:53:03;32.80;47.50
1337;DHT22;662;48.814;9.318;2023-08-17T12:55:29;32.60;48.10
1337;DHT22;662;48.814;9.318;2023-08-17T12:57:55;32.40;48.70
1337;DHT22;662;48.814;9.318;2023-08-17T13:00:20;32.20;49.10
1337;DHT22;662;48.814;9.318;2023-08-17T13:02:46;31.90;49.30
1337;DHT22;662;48.814;9.318;2023-08-17T13:05:16;31.80;49.50
1337;DHT22;662;48.814;9.318;2023-08-17T13:07:42;31.60;50.10
1337;DHT22;662;48.814;9.318;2023-08-17T13:10:07;31.40;50.40
1337;DHT22;662;48.814;9.318;2023-08-17T13:12:33;31.20;50.70
1337;DHT22;662;48.814;9.318;2023-08-17T13:14:59;31.10;51.10
1337;DHT22;662;48.814;9.318;2023-08-17T13:17:24;30.90;51.10
1337;DHT22;662;48.814;9.318;2023-08-17T13:19:50;30.80;51.30
1337;DHT22;662;48.814;9.318;2023-08-17T13:22:15;30.70;51.60
1337;DHT22;662;48.814;9.318;2023-08-17T13:24:41;30.60;52.00
1337;DHT22;662;48.814;9.318;2023-08-17T13:27:09;30.50;52.20
1337;DHT22;662;48.814;9.318;2023-08-17T13:29:35;30.30;52.20
1337;DHT22;662;48.814;9.318;2023-08-17T13:32:01;30.20;52.20
1337;DHT22;662;48.814;9.318;2023-08-17T13:34:26;30.00;52.20
1337;DHT22;662;48.814;9.318;2023-08-17T13:36:52;29.90;52.40
1337;DHT22;662;48.814;9.318;2023-08-17T13:39:17;29.80;52.60
1337;DHT22;662;48.814;9.318;2023-08-17T13:41:43;29.70;52.90
1337;DHT22;662;48.814;9.318;2023-08-17T13:44:09;29.60;53.30
1337;DHT22;662;48.814;9.318;2023-08-17T13:46:35;29.50;53.90
1337;DHT22;662;48.814;9.318;2023-08-17T13:49:00;29.40;54.50
1337;DHT22;662;48.814;9.318;2023-08-17T13:51:26;29.30;55.20
1337;DHT22;662;48.814;9.318;2023-08-17T13:53:52;29.20;55.80
1337;DHT22;662;48.814;9.318;2023-08-17T13:56:20;29.10;56.30
1337;DHT22;662;48.814;9.318;2023-08-17T13:58:46;29.00;56.70
1337;DHT22;662;48.814;9.318;2023-08-17T14:01:11;28.90;57.10
1337;DHT22;662;48.814;9.318;2023-08-17T14:03:37;28.80;57.50
1337;DHT22;662;48.814;9.318;2023-08-17T14:06:03;28.70;57.80
1337;DHT22;662;48.814;9.318;2023-08-17T14:08:31;28.60;58.30
1337;DHT22;662;48.814;9.318;2023-08-17T14:10:56;28.50;58.60
1337;DHT22;662;48.814;9.318;2023-08-17T14:13:22;28.50;59.00
1337;DHT22;662;48.814;9.318;2023-08-17T14:15:47;28.30;59.20
1337;DHT22;662;48.814;9.318;2023-08-17T14:18:13;28.30;59.40
1337;DHT22;662;48.814;9.318;2023-08-17T14:20:38;28.20;59.60
1337;DHT22;662;48.814;9.318;2023-08-17T14:23:04;28.20;59.70
1337;DHT22;662;48.814;9.318;2023-08-17T14:25:30;28.10;59.80
1337;DHT22;662;48.814;9.318;2023-08-17T14:27:56;28.00;59.80
1337;DHT22;662;48.814;9.318;2023-08-17T14:30:22;28.00;59.90
1337;DHT22;662;48.814;9.318;2023-08-17T14:32:50;27.90;60.00
1337;DHT22;662;48.814;9.318;2023-08-17T14:35:15;27.90;60.10
1337;DHT22;662;48.814;9.318;2023-08-17T14:37:41;27.90;60.20
1337;DHT22;662;48.814;9.318;2023-08-17T14:40:07;27.90;60.20
1337;DHT22;662;48.814;9.318;2023-08-17T14:42:33;27.90;60.30
1337;DHT22;662;48.814;9.318;2023-08-17T14:44:58;27.80;60.40
1337;DHT22;662;48.814;9.318;2023-08-17T14:47:27;27.80;60.60
1337;DHT22;662;48.814;9.318;2023-08-17T14:49:52;27.70;60.50
1337;DHT22;662;48.814;9.318;2023-08-17T14:52:18;27.70;60.50
1337;DHT22;662;48.814;9.318;2023-08-17T14:54:44;27.70;60.60
1337;DHT22;662;48.814;9.318;2023-08-17T14:57:10;27.70;60.70
1337;DHT22;662;48.814;9.318;2023-08-17T14:59:35;27.70;60.70
1337;DHT22;662;48.814;9.318;2023-08-17T15:02:02;27.70;60.80
1337;DHT22;662;48.814;9.318;2023-08-17T15:04:27;27.70;61.10
1337;DHT22;662;48.814;9.318;2023-08-17T15:06:53;27.60;60.90
1337;DHT22;662;48.814;9.318;2023-08-17T15:09:19;27.60;61.10
1337;DHT22;662;48.814;9.318;2023-08-17T15:11:44;27.60;61.40
1337;DHT22;662;48.814;9.318;2023-08-17T15:14:11;27.60;61.80
1337;DHT22;662;48.814;9.318;2023-08-17T15:16:36;27.60;62.00
1337;DHT22;662;48.814;9.318;2023-08-17T15:19:02;27.60;62.30
1337;DHT22;662;48.814;9.318;2023-08-17T15:21:28;27.50;62.50
1337;DHT22;662;48.814;9.318;2023-08-17T15:23:54;27.50;62.60
1337;DHT22;662;48.814;9.318;2023-08-17T15:26:19;27.50;63.40
1337;DHT22;662;48.814;9.318;2023-08-17T15:28:45;27.50;62.50
1337;DHT22;662;48.814;9.318;2023-08-17T15:31:10;27.50;62.50
1337;DHT22;662;48.814;9.318;2023-08-17T15:33:39;27.60;62.50
1337;DHT22;662;48.814;9.318;2023-08-17T15:36:05;27.60;62.40
1337;DHT22;662;48.814;9.318;2023-08-17T15:38:30;27.60;62.50
1337;DHT22;662;48.814;9.318;2023-08-17T15:40:56;27.50;62.60
1337;DHT22;662;48.814;9.318;2023-08-17T15:43:22;27.40;62.90
1337;DHT22;662;48.814;9.318;2023-08-17T15:45:51;27.40;63.20
1337;DHT22;662;48.814;9.318;2023-08-17T15:48:17;27.30;63.50
1337;DHT22;662;48.814;9.318;2023-08-17T15:50:43;27.30;63.60
1337;DHT22;662;48.814;9.318;2023-08-17T15:53:09;27.30;63.60
1337;DHT22;662;48.814;9.318;2023-08-17T15:55:34;27.30;63.70
1337;DHT22;662;48.814;9.318;2023-08-17T15:58:00;27.40;63.70
1337;DHT22;662;48.814;9.318;2023-08-17T16:00:26;27.40;63.50
1337;DHT22;662;48.814;9.318;2023-08-17T16:02:52;27.50;63.50
1337;DHT22;662;48.814;9.318;2023-08-17T16:05:17;27.50;63.40
1337;DHT22;662;48.814;9.318;2023-08-17T16:07:43;27.50;63.30
1337;DHT22;662;48.814;9.318;2023-08-17T16:10:09;27.60;63.20
1337;DHT22;662;48.814;9.318;2023-08-17T16:12:34;27.50;62.90
1337;DHT22;662;48.814;9.318;2023-08-17T16:15:00;27.40;62.80
1337;DHT22;662;48.814;9.318;2023-08-17T16:17:25;27.40;62.90
1337;DHT22;662;48.814;9.318;2023-08-17T16:19:51;27.40;63.10
1337;DHT22;662;48.814;9.318;2023-08-17T16:22:17;27.40;63.10
1337;DHT22;662;48.814;9.318;2023-08-17T16:24:42;27.40;63.10
1337;DHT22;662;48.814;9.318;2023-08-17T16:27:08;27.40;63.20
1337;DHT22;662;48.814;9.318;2023-08-17T16:29:33;27.40;63.10